createdAt,value
2023-03-29T10:01:35.085Z,7.40
2023-03-29T10:04:02.171Z,7.50
2023-03-29T10:06:29.439Z,7.60
2023-03-29T10:08:58.908Z,7.60
2023-03-29T10:11:39.001Z,7.50
2023-03-29T10:14:12.565Z,7.40
2023-03-29T10:16:41.540Z,7.40
2023-03-29T10:19:20.762Z,7.50
2023-03-29T10:21:49.129Z,7.50
2023-03-29T10:24:22.825Z,7.70
2023-03-29T10:26:56.553Z,7.80
2023-03-29T10:29:25.606Z,7.90
2023-03-29T10:31:55.304Z,7.90
2023-03-29T10:34:26.380Z,7.90
2023-03-29T10:37:01.353Z,7.90
2023-03-29T10:39:32.604Z,7.80
2023-03-29T10:42:01.030Z,7.80
2023-03-29T10:44:34.582Z,7.80
2023-03-29T10:47:31.564Z,7.90
2023-03-29T10:50:01.824Z,7.90
2023-03-29T10:52:30.301Z,7.90
2023-03-29T10:54:59.263Z,7.80
2023-03-29T10:58:07.856Z,7.70
2023-03-29T11:00:43.459Z,7.70
2023-03-29T11:03:35.989Z,7.70
2023-03-29T11:06:14.705Z,7.60
2023-03-29T11:08:58.462Z,7.60
2023-03-29T11:11:45.485Z,7.70
2023-03-29T11:14:18.262Z,7.70
2023-03-29T11:16:53.917Z,7.80
2023-03-29T11:19:44.925Z,7.80
2023-03-29T11:22:19.688Z,7.80
2023-03-29T11:25:08.308Z,7.90
2023-03-29T11:27:56.236Z,7.90
2023-03-29T11:30:47.764Z,8.20
2023-03-29T11:33:30.023Z,8.40
2023-03-29T11:36:35.035Z,8.70
2023-03-29T11:39:11.531Z,8.90
2023-03-29T11:41:48.795Z,8.90
2023-03-29T11:44:29.808Z,8.90
2023-03-29T11:46:59.889Z,8.80
2023-03-29T11:49:37.434Z,8.90
2023-03-29T11:52:18.069Z,8.90
2023-03-29T11:55:23.964Z,8.90
2023-03-29T11:57:58.272Z,8.90
2023-03-29T12:00:35.277Z,9.00
2023-03-29T12:03:19.730Z,9.00
2023-03-29T12:06:13.994Z,9.00
2023-03-29T19:01:07.290Z,7.70
2023-03-29T19:03:34.903Z,7.70
2023-03-29T19:06:03.308Z,7.60
2023-03-29T19:08:30.429Z,7.60
2023-03-29T19:11:01.629Z,7.60
2023-03-29T19:13:28.438Z,7.60
2023-03-29T19:15:55.267Z,7.60
2023-03-29T19:18:22.167Z,7.60
2023-03-29T19:20:53.785Z,7.60
2023-03-29T19:23:22.245Z,7.60
2023-03-29T19:25:55.939Z,7.60
2023-03-29T19:28:23.398Z,7.60
2023-03-29T19:30:50.380Z,7.60
2023-03-29T19:33:17.538Z,7.60
2023-03-29T19:35:44.445Z,7.50
2023-03-29T19:38:11.292Z,7.50
2023-03-29T19:40:38.314Z,7.50
2023-03-29T19:43:05.188Z,7.50
2023-03-29T19:45:32.034Z,7.50
2023-03-29T19:48:02.955Z,7.50
2023-03-29T19:50:31.641Z,7.50
2023-03-29T19:52:58.608Z,7.40
2023-03-29T19:55:26.513Z,7.50
2023-03-29T19:57:53.305Z,7.50
2023-03-29T20:00:24.405Z,7.50
2023-03-29T20:02:56.535Z,7.40
2023-03-29T20:05:24.147Z,7.50
2023-03-29T20:07:51.490Z,7.40
2023-03-29T20:10:18.462Z,7.40
2023-03-29T20:12:47.820Z,7.50
2023-03-29T20:15:17.115Z,7.50
2023-03-29T20:17:44.084Z,7.40
2023-03-29T20:20:12.048Z,7.50
2023-03-29T20:22:42.162Z,7.50
2023-03-29T20:25:09.510Z,7.40
2023-03-29T20:27:36.483Z,7.40
2023-03-29T20:30:04.110Z,7.40
2023-03-29T20:32:30.993Z,7.40
2023-03-29T20:34:57.823Z,7.40
2023-03-29T20:37:25.906Z,7.40
2023-03-29T20:39:53.064Z,7.40
2023-03-29T20:42:24.501Z,7.30
2023-03-29T20:44:51.442Z,7.30
2023-03-29T20:47:19.286Z,7.30
2023-03-29T20:49:46.148Z,7.30
2023-03-29T20:52:16.157Z,7.20
2023-03-29T20:54:45.756Z,7.20
2023-03-29T20:57:14.665Z,7.20
2023-03-29T20:59:42.962Z,7.20
2023-03-29T21:02:16.618Z,7.10
2023-03-29T21:04:44.118Z,7.10
2023-03-29T21:07:11.376Z,7.10
2023-03-29T21:09:38.268Z,7.20
2023-03-29T21:12:05.212Z,7.20
2023-03-29T21:14:33.373Z,7.20
2023-03-29T21:17:00.338Z,7.20
2023-03-29T21:19:27.390Z,7.20
2023-03-29T21:21:54.900Z,7.20
2023-03-29T21:24:21.969Z,7.20
2023-03-29T21:26:48.806Z,7.20
2023-03-29T21:29:15.643Z,7.20
2023-03-29T21:31:42.868Z,7.20
2023-03-29T21:34:09.852Z,7.20
2023-03-29T21:36:36.691Z,7.10
2023-03-29T21:39:03.615Z,7.10
2023-03-29T21:41:30.476Z,7.10
2023-03-29T21:43:57.291Z,7.10
2023-03-29T21:46:25.713Z,7.10
2023-03-29T21:48:52.568Z,7.10
2023-03-29T21:51:19.359Z,7.10
2023-03-29T21:53:46.223Z,7.10
2023-03-29T21:56:13.357Z,7.10
2023-03-29T21:58:41.196Z,7.10
2023-03-29T22:01:10.178Z,7.10
2023-03-29T22:03:37.996Z,7.10
2023-03-29T22:06:10.587Z,7.10
